createdAt,value
2022-12-23T00:01:25.806Z,100291.56
2022-12-23T00:03:54.054Z,100277.41
2022-12-23T00:06:22.000Z,100286.16
2022-12-23T00:08:49.858Z,100276.72
2022-12-23T00:11:20.466Z,100289.09
2022-12-23T00:14:05.483Z,100285.81
2022-12-23T00:16:36.577Z,100293.66
2022-12-23T00:19:04.441Z,100297.16
2022-12-23T00:21:32.172Z,100303.59
2022-12-23T00:23:59.931Z,100299.03
2022-12-23T00:26:28.816Z,100307.09
2022-12-23T00:28:58.462Z,100310.59
2022-12-23T00:31:26.657Z,100316.78
2022-12-23T00:33:55.757Z,100316.78
2022-12-23T00:36:27.596Z,100317.63
2022-12-23T00:39:13.837Z,100320.31
2022-12-23T00:41:59.012Z,100325.69
2022-12-23T00:44:27.434Z,100329.19
2022-12-23T00:46:55.340Z,100329.88
2022-12-23T00:49:42.196Z,100336.44
2022-12-23T00:52:11.876Z,100333.75
2022-12-23T00:54:39.975Z,100339.13
2022-12-23T00:57:07.932Z,100346.94
2022-12-23T00:59:35.878Z,100346.94
2022-12-23T01:02:21.491Z,100349.63
2022-12-23T01:05:08.480Z,100348.00
2022-12-23T01:07:36.160Z,100347.19
2022-12-23T01:10:04.248Z,100351.16
2022-12-23T01:12:32.001Z,100363.31
2022-12-23T01:14:59.698Z,100365.19
2022-12-23T01:17:27.433Z,100361.66
2022-12-23T01:19:56.482Z,100365.41
2022-12-23T01:22:24.221Z,100358.16
2022-12-23T01:24:51.901Z,100353.84
2022-12-23T01:27:19.603Z,100335.38
2022-12-23T01:29:47.358Z,100351.38
2022-12-23T01:32:15.257Z,100359.47
2022-12-23T01:34:43.007Z,100362.13
2022-12-23T01:37:12.077Z,100359.69
2022-12-23T01:39:39.790Z,100360.50
2022-12-23T01:42:28.584Z,100357.00
2022-12-23T01:44:59.860Z,100363.19
2022-12-23T01:47:33.987Z,100363.19
2022-12-23T01:50:07.308Z,100371.25
2022-12-23T01:52:43.681Z,100372.06
2022-12-23T01:55:12.665Z,100369.03
2022-12-23T01:57:42.684Z,100379.31
2022-12-23T02:00:30.230Z,100391.13
2022-12-23T02:03:15.710Z,100389.25
2022-12-23T02:05:45.895Z,100395.69
2022-12-23T02:08:34.081Z,100400.25
2022-12-23T02:11:24.819Z,100402.94
2022-12-23T02:14:23.028Z,100403.75
2022-12-23T02:17:01.960Z,100405.38
2022-12-23T02:19:59.202Z,100403.50
2022-12-23T02:22:44.872Z,100391.13
2022-12-23T02:25:45.513Z,100400.00
2022-12-23T02:28:45.408Z,100399.19
2022-12-23T02:31:25.603Z,100403.75
2022-12-23T02:34:00.805Z,100407.25
2022-12-23T02:36:39.788Z,100411.00
2022-12-23T02:39:10.209Z,100427.94
2022-12-23T02:41:48.217Z,100433.78
2022-12-23T02:44:22.439Z,100450.50
2022-12-23T02:46:57.935Z,100458.31
2022-12-23T02:49:29.830Z,100459.59
2022-12-23T02:52:00.572Z,100467.44
2022-12-23T02:54:31.537Z,100464.75
2022-12-23T02:57:02.130Z,100465.56
2022-12-23T02:59:35.275Z,100462.06
2022-12-23T03:02:04.429Z,100455.88
2022-12-23T03:04:32.308Z,100466.63
2022-12-23T03:07:05.879Z,100459.59
2022-12-23T03:09:45.581Z,100472.22
2022-12-23T03:12:23.772Z,100467.66
2022-12-23T03:15:09.182Z,100471.41
2022-12-23T03:17:49.579Z,100480.28
2022-12-23T03:20:26.478Z,100468.72
2022-12-23T03:23:02.720Z,100475.38
2022-12-23T03:25:37.035Z,100475.13
2022-12-23T03:28:12.239Z,100465.69
2022-12-23T03:30:44.175Z,100460.06
2022-12-23T03:33:17.123Z,100461.94
2022-12-23T03:35:50.155Z,100462.75
2022-12-23T03:38:20.234Z,100460.88
2022-12-23T03:40:53.079Z,100468.13
2022-12-23T03:43:24.771Z,100472.69
2022-12-23T03:45:58.194Z,100460.88
2022-12-23T03:48:34.202Z,100460.06
2022-12-23T03:51:07.219Z,100460.06
2022-12-23T03:53:38.907Z,100453.88
2022-12-23T03:56:11.447Z,100464.63
2022-12-23T03:58:45.198Z,100466.25
2022-12-23T04:01:20.931Z,100455.50
2022-12-23T04:03:58.326Z,100466.25
2022-12-23T04:06:31.073Z,100470.59
2022-12-23T04:08:59.794Z,100473.28
2022-12-23T04:11:27.508Z,100477.84
2022-12-23T04:13:55.208Z,100480.53
2022-12-23T04:16:23.529Z,100481.34
2022-12-23T04:18:52.691Z,100485.06
2022-12-23T04:21:20.449Z,100485.91
2022-12-23T04:23:48.128Z,100479.81
2022-12-23T04:26:15.812Z,100495.00
2022-12-23T04:28:43.589Z,100494.19
2022-12-23T04:31:11.335Z,100494.19
2022-12-23T04:33:39.070Z,100500.63
2022-12-23T04:36:08.439Z,100504.94
2022-12-23T04:38:36.140Z,100500.63
2022-12-23T04:41:03.859Z,100504.94
2022-12-23T04:43:31.601Z,100499.56
2022-12-23T04:45:59.286Z,100500.63
2022-12-23T04:48:27.000Z,100489.88
2022-12-23T04:50:54.705Z,100496.88
2022-12-23T04:53:23.852Z,100493.59
2022-12-23T04:55:52.027Z,100493.59
2022-12-23T04:58:22.029Z,100484.72
2022-12-23T05:00:49.910Z,100482.03
2022-12-23T05:03:17.788Z,100475.84
2022-12-23T05:05:45.848Z,100478.53
2022-12-23T05:08:13.543Z,100483.06
2022-12-23T05:10:42.555Z,100484.50
2022-12-23T05:13:10.278Z,100483.06
2022-12-23T05:15:37.955Z,100486.59
2022-12-23T05:18:05.859Z,100485.78
2022-12-23T05:20:33.517Z,100492.19
2022-12-23T05:23:01.217Z,100502.13
2022-12-23T05:25:28.971Z,100507.50
2022-12-23T05:27:58.062Z,100521.16
2022-12-23T05:30:25.773Z,100521.97
2022-12-23T05:32:54.661Z,100521.97
2022-12-23T05:35:22.693Z,100531.69
2022-12-23T05:37:50.736Z,100522.81
2022-12-23T05:40:23.898Z,100537.06
2022-12-23T05:42:53.772Z,100547.56
2022-12-23T05:45:22.903Z,100542.44
2022-12-23T05:47:50.584Z,100539.50
2022-12-23T05:50:18.375Z,100539.50
2022-12-23T05:52:46.166Z,100529.81
2022-12-23T05:55:13.884Z,100527.94
2022-12-23T05:57:41.612Z,100522.56
2022-12-23T06:00:10.635Z,100518.25
2022-12-23T06:02:39.997Z,100506.91
2022-12-23T06:05:08.492Z,100501.53
2022-12-23T06:07:36.374Z,100501.53
2022-12-23T06:10:05.767Z,100498.25
2022-12-23T06:12:33.531Z,100491.59
2022-12-23T06:15:01.290Z,100489.97
2022-12-23T06:17:29.015Z,100489.97
2022-12-23T06:19:58.123Z,100479.44
2022-12-23T06:22:25.877Z,100470.56
2022-12-23T06:24:53.577Z,100483.19
2022-12-23T06:27:21.310Z,100483.19
2022-12-23T06:29:49.262Z,100491.25
2022-12-23T06:32:17.032Z,100483.19
2022-12-23T06:34:44.762Z,100485.06
2022-12-23T06:37:13.825Z,100489.59
2022-12-23T06:39:41.547Z,100493.13
2022-12-23T06:42:09.258Z,100496.84
2022-12-23T06:44:36.970Z,100498.50
2022-12-23T06:47:04.700Z,100500.34
2022-12-23T06:49:32.465Z,100512.16
2022-12-23T06:52:00.145Z,100530.16
2022-12-23T06:54:29.188Z,100524.19
2022-12-23T06:56:56.907Z,100527.47
2022-12-23T06:59:24.643Z,100542.75
2022-12-23T07:01:52.486Z,100547.31
2022-12-23T07:04:20.543Z,100547.31
2022-12-23T07:06:48.219Z,100558.06
2022-12-23T07:09:15.991Z,100573.13
2022-12-23T07:11:45.342Z,100578.50
2022-12-23T07:14:13.348Z,100564.25
2022-12-23T07:16:41.137Z,100541.94
2022-12-23T07:19:09.129Z,100544.84
2022-12-23T07:21:38.688Z,100544.84
2022-12-23T07:24:07.294Z,100545.44
2022-12-23T07:26:35.042Z,100545.44
2022-12-23T07:29:04.697Z,100545.44
2022-12-23T07:31:32.479Z,100547.09
2022-12-23T07:34:00.206Z,100547.09
2022-12-23T07:36:28.190Z,100540.88
2022-12-23T07:38:56.282Z,100539.25
2022-12-23T07:41:24.039Z,100541.72
2022-12-23T07:43:51.752Z,100537.38
2022-12-23T07:46:20.851Z,100543.59
2022-12-23T07:48:48.621Z,100541.94
2022-12-23T07:51:16.391Z,100546.25
2022-12-23T07:53:44.170Z,100542.75
2022-12-23T07:56:11.860Z,100541.13
2022-12-23T07:58:39.569Z,100549.91
2022-12-23T08:01:08.848Z,100551.56
2022-12-23T08:03:38.452Z,100536.28
2022-12-23T08:06:08.575Z,100515.97
2022-12-23T08:08:36.917Z,100521.72
2022-12-23T08:11:08.375Z,100514.81
2022-12-23T08:13:38.171Z,100507.66
2022-12-23T08:16:07.395Z,100509.03
2022-12-23T08:18:36.687Z,100516.41
2022-12-23T08:21:08.016Z,100522.25
2022-12-23T08:23:36.036Z,100521.34
2022-12-23T08:26:06.138Z,100521.59
2022-12-23T08:28:34.703Z,100526.97
2022-12-23T08:31:07.705Z,100528.16
2022-12-23T08:33:36.719Z,100535.75
2022-12-23T08:36:07.950Z,100531.28
2022-12-23T08:38:36.404Z,100531.75
2022-12-23T08:41:04.988Z,100525.22
2022-12-23T08:43:36.157Z,100515.16
2022-12-23T08:46:04.307Z,100511.88
2022-12-23T08:48:32.549Z,100505.31
2022-12-23T08:51:06.062Z,100501.22
2022-12-23T08:53:34.386Z,100489.91
2022-12-23T08:56:04.695Z,100495.72
2022-12-23T08:58:33.081Z,100503.22
2022-12-23T09:01:04.810Z,100506.94
2022-12-23T09:03:32.673Z,100498.06
2022-12-23T09:06:00.494Z,100489.19
2022-12-23T09:08:29.592Z,100469.78
2022-12-23T09:10:57.307Z,100468.16
2022-12-23T09:13:32.781Z,100462.19
2022-12-23T09:16:02.901Z,100464.28
2022-12-23T09:18:30.687Z,100458.91
2022-12-23T09:20:59.639Z,100447.56
2022-12-23T09:23:27.425Z,100452.94
2022-12-23T09:25:56.917Z,100438.91
2022-12-23T09:28:25.833Z,100443.25
2022-12-23T09:30:54.161Z,100449.66
2022-12-23T09:33:21.867Z,100449.91
2022-12-23T09:35:49.589Z,100444.53
2022-12-23T09:38:17.302Z,100436.47
2022-12-23T09:40:45.690Z,100439.38
2022-12-23T09:43:26.049Z,100427.00
2022-12-23T09:46:05.380Z,100417.06
2022-12-23T09:48:36.880Z,100416.13
2022-12-23T09:51:05.568Z,100407.47
2022-12-23T09:53:47.255Z,100407.34
2022-12-23T09:56:20.804Z,100410.97
2022-12-23T09:58:56.612Z,100430.94
2022-12-23T10:01:32.618Z,100423.19
2022-12-23T10:04:30.819Z,100418.34
2022-12-23T10:07:15.892Z,100426.03
2022-12-23T10:09:47.322Z,100420.34
2022-12-23T10:12:28.782Z,100410.31
2022-12-23T10:15:03.632Z,100398.06
2022-12-23T10:17:35.860Z,100400.94
2022-12-23T10:20:07.230Z,100399.78
2022-12-23T10:22:39.843Z,100394.78
2022-12-23T10:25:16.375Z,100377.59
2022-12-23T10:27:45.743Z,100362.69
2022-12-23T10:30:53.535Z,100356.28
2022-12-23T10:33:09.837Z,100355.28
2022-12-23T10:35:50.010Z,100348.41
2022-12-23T10:38:32.111Z,100341.53
2022-12-23T10:41:09.637Z,100338.75
2022-12-23T10:43:46.112Z,100334.88
2022-12-23T10:46:25.111Z,100329.41
2022-12-23T10:49:04.034Z,100339.84
2022-12-23T10:51:37.299Z,100330.59
2022-12-23T10:54:10.878Z,100322.78
2022-12-23T10:56:38.778Z,100315.19
2022-12-23T10:59:08.385Z,100312.16
2022-12-23T11:01:37.801Z,100300.81
2022-12-23T11:04:10.193Z,100282.81
2022-12-23T11:06:42.087Z,100270.63
2022-12-23T11:09:17.708Z,100271.97
2022-12-23T11:12:00.336Z,100264.72
2022-12-23T11:14:38.522Z,100260.44
2022-12-23T11:17:20.489Z,100241.63
2022-12-23T11:19:48.251Z,100247.00
2022-12-23T11:22:25.036Z,100257.41
2022-12-23T11:24:52.582Z,100256.81
2022-12-23T11:27:20.988Z,100257.31
2022-12-23T11:29:51.668Z,100253.16
2022-12-23T11:32:25.582Z,100233.03
2022-12-23T11:34:54.215Z,100231.50
2022-12-23T11:37:30.514Z,100224.81
2022-12-23T11:39:58.388Z,100219.22
2022-12-23T11:42:30.570Z,100220.47
2022-12-23T11:45:00.629Z,100211.47
2022-12-23T11:47:42.934Z,100206.00
2022-12-23T11:50:28.581Z,100198.91
2022-12-23T11:53:02.434Z,100180.81
2022-12-23T11:55:33.364Z,100180.47
2022-12-23T11:58:02.645Z,100172.09
2022-12-23T12:00:37.843Z,100161.00
2022-12-23T12:03:09.333Z,100159.59
2022-12-23T12:05:40.454Z,100151.19
2022-12-23T12:08:17.069Z,100149.81
2022-12-23T12:10:45.086Z,100142.00
2022-12-23T12:13:24.835Z,100136.03
2022-12-23T12:15:58.038Z,100124.47
2022-12-23T12:18:27.560Z,100124.72
2022-12-23T12:20:59.948Z,100108.81
2022-12-23T12:23:37.704Z,100094.56
2022-12-23T12:26:08.787Z,100098.31
2022-12-23T12:28:40.067Z,100102.88
2022-12-23T12:31:21.470Z,100092.91
2022-12-23T12:33:54.333Z,100100.19
2022-12-23T12:36:31.226Z,100092.69
2022-12-23T12:39:00.882Z,100077.34
2022-12-23T12:41:32.200Z,100071.16
2022-12-23T12:44:06.810Z,100057.47
2022-12-23T12:46:40.723Z,100049.31
2022-12-23T12:49:21.453Z,100041.72
2022-12-23T12:51:55.286Z,100028.22
2022-12-23T12:54:28.180Z,100031.69
2022-12-23T12:56:57.518Z,100036.81
2022-12-23T12:59:28.247Z,100012.75
2022-12-23T13:02:22.980Z,99962.22
2022-12-23T13:05:18.289Z,99938.53
2022-12-23T13:07:57.586Z,99944.38
2022-12-23T13:10:38.001Z,99963.41
2022-12-23T13:13:21.387Z,99952.22
2022-12-23T13:15:54.986Z,99960.41
2022-12-23T13:18:35.133Z,99963.28
2022-12-23T13:21:08.994Z,99941.94
2022-12-23T13:23:44.453Z,99941.31
2022-12-23T13:26:23.155Z,99943.38
2022-12-23T13:29:00.106Z,99943.31
2022-12-23T13:31:37.383Z,99933.03
2022-12-23T13:34:17.489Z,99918.78
2022-12-23T13:36:57.642Z,99923.91
2022-12-23T13:39:39.294Z,99918.53
2022-12-23T13:42:13.402Z,99918.53
2022-12-23T13:44:41.491Z,99889.19
2022-12-23T13:47:16.340Z,99904.75
2022-12-23T13:49:55.634Z,99876.22
2022-12-23T13:52:35.232Z,99892.63
2022-12-23T13:55:13.020Z,99869.72
2022-12-23T13:57:52.707Z,99861.59
2022-12-23T14:00:27.080Z,99884.56
2022-12-23T14:03:20.764Z,99885.38
2022-12-23T14:05:50.663Z,99888.88
2022-12-23T14:08:28.043Z,99880.16
2022-12-23T14:10:58.571Z,99889.13
2022-12-23T14:13:29.335Z,99879.66
2022-12-23T14:16:29.820Z,99881.78
2022-12-23T14:19:24.816Z,99881.22
2022-12-23T14:22:02.007Z,99874.22
2022-12-23T14:24:50.784Z,99881.16
2022-12-23T14:27:35.639Z,99891.13
2022-12-23T14:30:12.513Z,99887.03
2022-12-23T14:32:51.539Z,99881.91
2022-12-23T14:35:49.343Z,99883.22
2022-12-23T14:38:24.864Z,99884.84
2022-12-23T14:41:19.041Z,99889.41
2022-12-23T14:43:55.734Z,99871.84
2022-12-23T14:46:56.458Z,99881.84
2022-12-23T14:49:40.459Z,99882.09
2022-12-23T14:52:48.027Z,99879.41
2022-12-23T14:55:40.559Z,99879.66
2022-12-23T14:58:27.608Z,99880.47
2022-12-23T15:01:02.107Z,99880.72
2022-12-23T15:03:34.208Z,99885.03
2022-12-23T15:06:07.150Z,99887.72
2022-12-23T15:08:38.724Z,99893.09
2022-12-23T15:11:09.040Z,99889.59
2022-12-23T15:13:39.066Z,99891.47
2022-12-23T15:16:07.538Z,99890.66
2022-12-23T15:18:35.279Z,99896.84
2022-12-23T15:21:04.448Z,99897.66
2022-12-23T15:23:33.298Z,99908.44
2022-12-23T15:26:02.591Z,99906.00
2022-12-23T15:28:38.336Z,99890.91
2022-12-23T15:31:17.138Z,99887.97
2022-12-23T15:34:04.868Z,99899.31
2022-12-23T15:36:37.294Z,99907.75
2022-12-23T15:39:11.057Z,99903.38
2022-12-23T15:41:46.041Z,99915.41
2022-12-23T15:44:16.499Z,99919.09
2022-12-23T15:46:45.682Z,99928.72
2022-12-23T15:49:13.850Z,99920.00
2022-12-23T15:54:36.781Z,99943.03
2022-12-23T15:57:05.807Z,99945.66
2022-12-23T15:59:37.726Z,99934.78
2022-12-23T16:02:59.625Z,99943.88
2022-12-23T16:05:06.902Z,99940.75
2022-12-23T16:07:36.932Z,99960.66
2022-12-23T16:10:06.359Z,99968.66
2022-12-23T16:12:35.737Z,99965.91
2022-12-23T16:15:04.646Z,99966.72
2022-12-23T16:17:35.240Z,99969.91
2022-12-23T16:20:22.256Z,99974.72
2022-12-23T16:22:52.889Z,99985.75
2022-12-23T16:25:24.810Z,99987.88
2022-12-23T16:27:57.719Z,100001.31
2022-12-23T16:30:30.369Z,100010.47
2022-12-23T16:33:02.238Z,100010.72
2022-12-23T16:35:36.774Z,100016.34
2022-12-23T16:38:17.196Z,100020.09
2022-12-23T16:40:46.657Z,100021.16
2022-12-23T16:43:14.827Z,100027.59
2022-12-23T16:45:44.024Z,100036.00
2022-12-23T16:48:20.544Z,100034.59
2022-12-23T16:50:55.487Z,100041.06
2022-12-23T16:53:23.239Z,100038.34
2022-12-23T16:55:56.673Z,100031.91
2022-12-23T16:58:27.631Z,100041.06
2022-12-23T17:00:55.506Z,100044.00
2022-12-23T17:03:24.735Z,100046.94
2022-12-23T17:05:52.495Z,100053.13
2022-12-23T17:08:20.471Z,100055.56
2022-12-23T17:10:49.151Z,100054.75
2022-12-23T17:13:19.525Z,100064.47
2022-12-23T17:15:48.046Z,100060.69
2022-12-23T17:18:18.561Z,100073.09
2022-12-23T17:20:49.531Z,100074.72
2022-12-23T17:23:26.732Z,100074.97
2022-12-23T17:25:54.743Z,100084.69
2022-12-23T17:28:23.024Z,100089.25
2022-12-23T17:30:55.062Z,100072.28
2022-12-23T17:33:25.426Z,100080.09
2022-12-23T17:35:55.820Z,100086.06
2022-12-23T17:38:24.163Z,100089.00
2022-12-23T17:40:52.292Z,100098.94
2022-12-23T17:43:20.339Z,100108.88
2022-12-23T17:45:48.456Z,100106.19
2022-12-23T17:48:22.290Z,100117.78
2022-12-23T17:50:52.143Z,100109.97
2022-12-23T17:53:21.231Z,100114.53
2022-12-23T17:55:48.952Z,100120.97
2022-12-23T17:58:16.690Z,100120.16
2022-12-23T18:00:44.643Z,100126.34
2022-12-23T18:03:23.239Z,100129.28
2022-12-23T18:05:57.288Z,100132.53
2022-12-23T18:08:30.258Z,100131.31
2022-12-23T18:10:59.359Z,100124.53
2022-12-23T18:13:27.147Z,100122.09
2022-12-23T18:15:54.875Z,100127.19
2022-12-23T18:18:33.022Z,100122.78
2022-12-23T18:21:06.490Z,100133.25
2022-12-23T18:23:37.185Z,100136.31
2022-12-23T18:26:05.111Z,100134.44
2022-12-23T18:28:32.843Z,100132.75
2022-12-23T18:31:00.657Z,100141.25
2022-12-23T18:33:30.205Z,100164.06
2022-12-23T18:35:57.966Z,100154.28
2022-12-23T18:38:25.712Z,100162.88
2022-12-23T18:40:56.640Z,100150.97
2022-12-23T18:43:26.634Z,100161.69
2022-12-23T18:45:54.562Z,100166.03
2022-12-23T18:48:22.599Z,100165.50
2022-12-23T18:50:50.378Z,100176.81
2022-12-23T18:53:24.335Z,100174.03
2022-12-23T18:55:54.992Z,100177.22
2022-12-23T18:58:23.199Z,100185.56
2022-12-23T19:00:52.679Z,100183.59
2022-12-23T19:03:23.844Z,100185.16
2022-12-23T19:05:53.371Z,100182.38
2022-12-23T19:08:26.775Z,100180.19
2022-12-23T19:10:56.893Z,100189.56
2022-12-23T19:13:24.679Z,100177.41
2022-12-23T19:15:52.456Z,100193.56
2022-12-23T19:18:22.788Z,100193.00
2022-12-23T19:20:50.749Z,100198.59
2022-12-23T19:23:18.622Z,100207.97
2022-12-23T19:25:54.467Z,100206.34
2022-12-23T19:28:27.103Z,100210.91
2022-12-23T19:30:54.853Z,100213.59
2022-12-23T19:33:22.660Z,100213.84
2022-12-23T19:35:50.464Z,100221.34
2022-12-23T19:38:18.188Z,100224.88
2022-12-23T19:40:45.869Z,100225.09
2022-12-23T19:43:13.567Z,100230.25
2022-12-23T19:45:42.663Z,100227.81
2022-12-23T19:48:10.410Z,100225.34
2022-12-23T19:50:38.091Z,100242.31
2022-12-23T19:53:05.791Z,100245.25
2022-12-23T19:55:33.579Z,100257.41
2022-12-23T19:58:01.287Z,100252.28
2022-12-23T20:00:29.048Z,100256.25
2022-12-23T20:02:59.209Z,100267.28
2022-12-23T20:05:27.229Z,100278.28
2022-12-23T20:07:54.976Z,100271.25
2022-12-23T20:10:22.692Z,100275.81
2022-12-23T20:12:50.435Z,100283.09
2022-12-23T20:15:18.344Z,100289.28
2022-12-23T20:17:46.065Z,100288.47
2022-12-23T20:20:15.326Z,100291.16
2022-12-23T20:22:43.089Z,100306.50
2022-12-23T20:25:11.088Z,100305.09
2022-12-23T20:27:38.976Z,100308.38
2022-12-23T20:30:08.123Z,100317.50
2022-12-23T20:32:35.824Z,100315.63
2022-12-23T20:35:03.544Z,100323.69
2022-12-23T20:37:32.651Z,100326.63
2022-12-23T20:40:00.534Z,100339.03
2022-12-23T20:42:28.281Z,100346.53
2022-12-23T20:44:55.994Z,100343.84
2022-12-23T20:47:23.693Z,100355.41
2022-12-23T20:49:51.450Z,100366.41
2022-12-23T20:52:19.171Z,100369.13
2022-12-23T20:54:48.234Z,100371.00
2022-12-23T20:57:15.969Z,100381.50
2022-12-23T20:59:43.728Z,100379.06
2022-12-23T21:02:13.376Z,100382.56
2022-12-23T21:04:41.431Z,100390.66
2022-12-23T21:07:09.912Z,100395.22
2022-12-23T21:09:37.627Z,100401.66
2022-12-23T21:12:07.081Z,100408.09
2022-12-23T21:14:35.035Z,100396.25
2022-12-23T21:17:02.797Z,100407.25
2022-12-23T21:19:30.644Z,100403.75
2022-12-23T21:21:58.651Z,100415.09
2022-12-23T21:24:26.702Z,100412.66
2022-12-23T21:26:56.853Z,100416.41
2022-12-23T21:29:26.879Z,100423.88
2022-12-23T21:31:55.163Z,100429.28
2022-12-23T21:34:23.336Z,100433.00
2022-12-23T21:36:51.163Z,100441.09
2022-12-23T21:39:19.860Z,100441.09
2022-12-23T21:41:49.177Z,100444.84
2022-12-23T21:44:16.930Z,100444.03
2022-12-23T21:46:46.080Z,100457.72
2022-12-23T21:49:14.074Z,100459.34
2022-12-23T21:51:42.324Z,100462.03
2022-12-23T21:54:11.544Z,100463.09
2022-12-23T21:56:40.688Z,100465.78
2022-12-23T21:59:12.271Z,100464.63
2022-12-23T22:01:40.814Z,100471.41
2022-12-23T22:04:09.965Z,100480.28
2022-12-23T22:06:39.464Z,100479.22
2022-12-23T22:09:08.441Z,100484.63
2022-12-23T22:11:37.845Z,100501.00
2022-12-23T22:14:08.035Z,100499.34
2022-12-23T22:16:36.781Z,100501.22
2022-12-23T22:19:07.169Z,100498.78
2022-12-23T22:21:37.237Z,100512.00
2022-12-23T22:24:05.730Z,100515.16
2022-12-23T22:26:34.710Z,100517.38
2022-12-23T22:29:05.215Z,100522.16
2022-12-23T22:31:36.831Z,100530.25
2022-12-23T22:34:06.261Z,100542.06
2022-12-23T22:36:36.106Z,100550.94
2022-12-23T22:39:04.333Z,100543.13
2022-12-23T22:41:32.741Z,100546.63
2022-12-23T22:44:00.947Z,100539.38
2022-12-23T22:46:29.042Z,100546.84
2022-12-23T22:48:57.176Z,100549.53
2022-12-23T22:51:26.690Z,100545.00
2022-12-23T22:53:56.362Z,100548.97
2022-12-23T22:56:25.585Z,100539.03
2022-12-23T22:58:54.185Z,100547.09
2022-12-23T23:01:23.485Z,100547.56
2022-12-23T23:03:56.876Z,100550.84
2022-12-23T23:06:25.972Z,100556.22
2022-12-23T23:08:55.520Z,100565.34
2022-12-23T23:11:23.748Z,100574.22
2022-12-23T23:13:51.884Z,100566.97
2022-12-23T23:16:20.239Z,100577.75
2022-12-23T23:18:48.021Z,100572.59
2022-12-23T23:21:16.439Z,100575.50
2022-12-23T23:23:44.221Z,100572.81
2022-12-23T23:26:14.065Z,100575.50
2022-12-23T23:28:42.368Z,100585.47
2022-12-23T23:31:40.661Z,100578.44
2022-12-23T23:33:58.679Z,100595.41
2022-12-23T23:36:26.504Z,100604.28
2022-12-23T23:38:54.326Z,100611.78
2022-12-23T23:41:24.264Z,100611.78
2022-12-23T23:43:52.562Z,100610.13
2022-12-23T23:46:20.547Z,100607.69
2022-12-23T23:48:48.609Z,100614.94
2022-12-23T23:51:16.416Z,100613.28
2022-12-23T23:53:44.177Z,100625.91
2022-12-23T23:56:11.956Z,100613.75
2022-12-23T23:58:41.560Z,100618.06
